sensor_id;sensor_type;location;lat;lon;timestamp;P1;durP1;ratioP1;P2;durP2;ratioP2
30458;SDS011;17254;50.976;7.034;2022-07-03T00:00:10;7.20;;;1.60;;
30458;SDS011;17254;50.976;7.034;2022-07-03T00:00:44;3.90;;;1.50;;
30458;SDS011;17254;50.976;7.034;2022-07-03T00:01:18;4.10;;;1.48;;
30458;SDS011;17254;50.976;7.034;2022-07-03T00:01:49;4.35;;;1.40;;
30458;SDS011;17254;50.976;7.034;2022-07-03T00:02:20;6.75;;;1.42;;
30458;SDS011;17254;50.976;7.034;2022-07-03T00:02:52;3.47;;;1.17;;
30458;SDS011;17254;50.976;7.034;2022-07-03T00:03:23;4.63;;;1.42;;
30458;SDS011;17254;50.976;7.034;2022-07-03T00:03:54;2.72;;;1.48;;
30458;SDS011;17254;50.976;7.034;2022-07-03T00:04:25;4.72;;;1.33;;
30458;SDS011;17254;50.976;7.034;2022-07-03T00:04:57;6.10;;;1.30;;
30458;SDS011;17254;50.976;7.034;2022-07-03T00:05:28;5.43;;;2.58;;
30458;SDS011;17254;50.976;7.034;2022-07-03T00:06:00;6.10;;;1.40;;
30458;SDS011;17254;50.976;7.034;2022-07-03T00:06:31;2.70;;;0.95;;
30458;SDS011;17254;50.976;7.034;2022-07-03T00:07:03;5.05;;;1.90;;
30458;SDS011;17254;50.976;7.034;2022-07-03T00:07:36;5.20;;;1.58;;
30458;SDS011;17254;50.976;7.034;2022-07-03T00:08:07;2.53;;;1.10;;
30458;SDS011;17254;50.976;7.034;2022-07-03T00:08:38;4.97;;;1.52;;
30458;SDS011;17254;50.976;7.034;2022-07-03T00:09:09;3.83;;;1.38;;
30458;SDS011;17254;50.976;7.034;2022-07-03T00:09:42;2.90;;;1.42;;
30458;SDS011;17254;50.976;7.034;2022-07-03T00:10:13;4.25;;;1.42;;
30458;SDS011;17254;50.976;7.034;2022-07-03T00:10:44;4.30;;;1.30;;
30458;SDS011;17254;50.976;7.034;2022-07-03T00:11:16;5.38;;;1.75;;
30458;SDS011;17254;50.976;7.034;2022-07-03T00:11:47;4.88;;;1.45;;
30458;SDS011;17254;50.976;7.034;2022-07-03T00:12:19;7.13;;;1.80;;
30458;SDS011;17254;50.976;7.034;2022-07-03T00:12:51;7.00;;;1.35;;
30458;SDS011;17254;50.976;7.034;2022-07-03T00:13:22;3.50;;;1.42;;
30458;SDS011;17254;50.976;7.034;2022-07-03T00:13:53;7.10;;;1.65;;
30458;SDS011;17254;50.976;7.034;2022-07-03T00:14:24;6.13;;;1.80;;
30458;SDS011;17254;50.976;7.034;2022-07-03T00:14:56;3.90;;;1.90;;
30458;SDS011;17254;50.976;7.034;2022-07-03T00:15:27;5.45;;;1.80;;
30458;SDS011;17254;50.976;7.034;2022-07-03T00:15:58;8.10;;;1.95;;
30458;SDS011;17254;50.976;7.034;2022-07-03T00:16:31;3.28;;;1.55;;
30458;SDS011;17254;50.976;7.034;2022-07-03T00:17:03;5.07;;;1.63;;
30458;SDS011;17254;50.976;7.034;2022-07-03T00:17:34;6.88;;;1.70;;
30458;SDS011;17254;50.976;7.034;2022-07-03T00:18:05;5.53;;;1.95;;
30458;SDS011;17254;50.976;7.034;2022-07-03T00:18:36;3.00;;;1.33;;
30458;SDS011;17254;50.976;7.034;2022-07-03T00:19:08;3.42;;;1.52;;
30458;SDS011;17254;50.976;7.034;2022-07-03T00:19:39;3.13;;;1.70;;
30458;SDS011;17254;50.976;7.034;2022-07-03T00:20:11;12.27;;;1.70;;
30458;SDS011;17254;50.976;7.034;2022-07-03T00:20:44;6.53;;;1.83;;
30458;SDS011;17254;50.976;7.034;2022-07-03T00:21:20;5.53;;;1.48;;
30458;SDS011;17254;50.976;7.034;2022-07-03T00:21:55;6.32;;;2.00;;
30458;SDS011;17254;50.976;7.034;2022-07-03T00:22:27;3.67;;;1.40;;
30458;SDS011;17254;50.976;7.034;2022-07-03T00:23:00;6.10;;;2.50;;
30458;SDS011;17254;50.976;7.034;2022-07-03T00:23:38;6.28;;;2.35;;
30458;SDS011;17254;50.976;7.034;2022-07-03T00:24:16;4.03;;;1.50;;
30458;SDS011;17254;50.976;7.034;2022-07-03T00:24:54;3.67;;;1.70;;
30458;SDS011;17254;50.976;7.034;2022-07-03T00:25:33;11.88;;;2.40;;
30458;SDS011;17254;50.976;7.034;2022-07-03T00:26:05;6.53;;;1.90;;
30458;SDS011;17254;50.976;7.034;2022-07-03T00:26:38;8.80;;;2.33;;
30458;SDS011;17254;50.976;7.034;2022-07-03T00:27:12;3.83;;;1.83;;
30458;SDS011;17254;50.976;7.034;2022-07-03T00:27:46;6.95;;;1.65;;
30458;SDS011;17254;50.976;7.034;2022-07-03T00:28:20;6.70;;;2.63;;
30458;SDS011;17254;50.976;7.034;2022-07-03T00:28:53;10.07;;;2.33;;
30458;SDS011;17254;50.976;7.034;2022-07-03T00:29:29;3.22;;;1.80;;
30458;SDS011;17254;50.976;7.034;2022-07-03T00:30:07;8.35;;;1.90;;
30458;SDS011;17254;50.976;7.034;2022-07-03T00:30:38;4.50;;;1.52;;
30458;SDS011;17254;50.976;7.034;2022-07-03T00:31:11;5.53;;;2.05;;
30458;SDS011;17254;50.976;7.034;2022-07-03T00:31:45;5.50;;;2.03;;
30458;SDS011;17254;50.976;7.034;2022-07-03T00:32:19;4.15;;;1.70;;
30458;SDS011;17254;50.976;7.034;2022-07-03T00:32:54;4.50;;;2.03;;
30458;SDS011;17254;50.976;7.034;2022-07-03T00:33:26;6.43;;;2.28;;
30458;SDS011;17254;50.976;7.034;2022-07-03T00:33:59;10.15;;;2.30;;
30458;SDS011;17254;50.976;7.034;2022-07-03T00:34:31;5.05;;;2.40;;
30458;SDS011;17254;50.976;7.034;2022-07-03T00:35:04;6.05;;;2.20;;
30458;SDS011;17254;50.976;7.034;2022-07-03T00:35:37;5.82;;;2.10;;
30458;SDS011;17254;50.976;7.034;2022-07-03T00:36:12;7.30;;;3.00;;
30458;SDS011;17254;50.976;7.034;2022-07-03T00:36:45;5.13;;;2.00;;
30458;SDS011;17254;50.976;7.034;2022-07-03T00:37:18;6.15;;;2.55;;
30458;SDS011;17254;50.976;7.034;2022-07-03T00:37:49;4.45;;;2.13;;
30458;SDS011;17254;50.976;7.034;2022-07-03T00:38:20;8.80;;;2.17;;
30458;SDS011;17254;50.976;7.034;2022-07-03T00:38:53;3.97;;;2.05;;
30458;SDS011;17254;50.976;7.034;2022-07-03T00:39:24;5.10;;;2.13;;
30458;SDS011;17254;50.976;7.034;2022-07-03T00:39:55;4.35;;;1.85;;
30458;SDS011;17254;50.976;7.034;2022-07-03T00:40:28;5.55;;;1.95;;
30458;SDS011;17254;50.976;7.034;2022-07-03T00:41:00;5.10;;;2.20;;
30458;SDS011;17254;50.976;7.034;2022-07-03T00:41:33;6.68;;;1.65;;
30458;SDS011;17254;50.976;7.034;2022-07-03T00:42:07;10.38;;;2.53;;
30458;SDS011;17254;50.976;7.034;2022-07-03T00:42:39;4.28;;;1.83;;
30458;SDS011;17254;50.976;7.034;2022-07-03T00:43:11;5.00;;;2.28;;
30458;SDS011;17254;50.976;7.034;2022-07-03T00:43:45;5.40;;;1.85;;
30458;SDS011;17254;50.976;7.034;2022-07-03T00:44:16;3.65;;;2.00;;
30458;SDS011;17254;50.976;7.034;2022-07-03T00:44:50;11.80;;;1.88;;
30458;SDS011;17254;50.976;7.034;2022-07-03T00:45:22;4.47;;;1.65;;
30458;SDS011;17254;50.976;7.034;2022-07-03T00:46:03;5.35;;;2.30;;
30458;SDS011;17254;50.976;7.034;2022-07-03T00:46:38;7.15;;;2.28;;
30458;SDS011;17254;50.976;7.034;2022-07-03T00:47:12;4.05;;;2.22;;
30458;SDS011;17254;50.976;7.034;2022-07-03T00:47:43;5.15;;;2.22;;
30458;SDS011;17254;50.976;7.034;2022-07-03T00:48:15;4.78;;;2.35;;
30458;SDS011;17254;50.976;7.034;2022-07-03T00:48:49;4.78;;;2.05;;
30458;SDS011;17254;50.976;7.034;2022-07-03T00:49:22;5.72;;;2.28;;
30458;SDS011;17254;50.976;7.034;2022-07-03T00:49:54;6.55;;;2.00;;
30458;SDS011;17254;50.976;7.034;2022-07-03T00:50:30;4.28;;;2.10;;
30458;SDS011;17254;50.976;7.034;2022-07-03T00:51:06;3.88;;;2.13;;
30458;SDS011;17254;50.976;7.034;2022-07-03T00:51:39;4.35;;;2.10;;
30458;SDS011;17254;50.976;7.034;2022-07-03T00:52:14;3.40;;;1.90;;
30458;SDS011;17254;50.976;7.034;2022-07-03T00:52:47;5.30;;;2.28;;
30458;SDS011;17254;50.976;7.034;2022-07-03T00:53:23;4.40;;;2.25;;
30458;SDS011;17254;50.976;7.034;2022-07-03T00:53:58;5.80;;;2.47;;
30458;SDS011;17254;50.976;7.034;2022-07-03T00:54:29;6.53;;;2.50;;
30458;SDS011;17254;50.976;7.034;2022-07-03T00:55:06;4.55;;;2.08;;
30458;SDS011;17254;50.976;7.034;2022-07-03T00:55:39;7.95;;;2.40;;
30458;SDS011;17254;50.976;7.034;2022-07-03T00:56:12;7.22;;;3.42;;
30458;SDS011;17254;50.976;7.034;2022-07-03T00:56:49;4.50;;;1.92;;
30458;SDS011;17254;50.976;7.034;2022-07-03T00:57:22;10.70;;;2.50;;
30458;SDS011;17254;50.976;7.034;2022-07-03T00:57:55;3.47;;;2.08;;
30458;SDS011;17254;50.976;7.034;2022-07-03T00:58:28;9.80;;;2.70;;
30458;SDS011;17254;50.976;7.034;2022-07-03T00:59:00;6.65;;;2.42;;
30458;SDS011;17254;50.976;7.034;2022-07-03T00:59:31;4.22;;;2.15;;
30458;SDS011;17254;50.976;7.034;2022-07-03T01:00:04;4.25;;;2.28;;
30458;SDS011;17254;50.976;7.034;2022-07-03T01:00:38;8.95;;;2.58;;
30458;SDS011;17254;50.976;7.034;2022-07-03T01:01:10;6.93;;;2.28;;
30458;SDS011;17254;50.976;7.034;2022-07-03T01:01:41;4.78;;;2.83;;
30458;SDS011;17254;50.976;7.034;2022-07-03T01:02:22;8.15;;;2.25;;
30458;SDS011;17254;50.976;7.034;2022-07-03T01:03:01;6.63;;;2.97;;
30458;SDS011;17254;50.976;7.034;2022-07-03T01:03:35;8.50;;;2.60;;
30458;SDS011;17254;50.976;7.034;2022-07-03T01:04:17;7.93;;;2.38;;
30458;SDS011;17254;50.976;7.034;2022-07-03T01:04:55;10.00;;;4.15;;
30458;SDS011;17254;50.976;7.034;2022-07-03T01:05:35;8.85;;;2.42;;
30458;SDS011;17254;50.976;7.034;2022-07-03T01:06:09;10.40;;;3.97;;
30458;SDS011;17254;50.976;7.034;2022-07-03T01:06:47;7.57;;;3.67;;
30458;SDS011;17254;50.976;7.034;2022-07-03T01:07:29;10.23;;;3.83;;
30458;SDS011;17254;50.976;7.034;2022-07-03T01:08:11;18.70;;;7.47;;
30458;SDS011;17254;50.976;7.034;2022-07-03T01:08:51;11.27;;;6.90;;
30458;SDS011;17254;50.976;7.034;2022-07-03T01:09:32;5.30;;;2.88;;
30458;SDS011;17254;50.976;7.034;2022-07-03T01:10:12;4.50;;;3.00;;
30458;SDS011;17254;50.976;7.034;2022-07-03T01:10:52;7.45;;;3.10;;
30458;SDS011;17254;50.976;7.034;2022-07-03T01:11:32;5.55;;;3.00;;
30458;SDS011;17254;50.976;7.034;2022-07-03T01:12:10;5.15;;;2.83;;
30458;SDS011;17254;50.976;7.034;2022-07-03T01:12:54;5.05;;;2.70;;
30458;SDS011;17254;50.976;7.034;2022-07-03T01:13:35;7.30;;;3.03;;
30458;SDS011;17254;50.976;7.034;2022-07-03T01:14:15;7.25;;;3.00;;
30458;SDS011;17254;50.976;7.034;2022-07-03T01:14:58;8.82;;;3.08;;
30458;SDS011;17254;50.976;7.034;2022-07-03T01:15:37;7.78;;;3.33;;
30458;SDS011;17254;50.976;7.034;2022-07-03T01:16:16;9.75;;;3.53;;
30458;SDS011;17254;50.976;7.034;2022-07-03T01:16:55;6.85;;;3.63;;
30458;SDS011;17254;50.976;7.034;2022-07-03T01:17:32;8.73;;;5.07;;
30458;SDS011;17254;50.976;7.034;2022-07-03T01:18:17;7.40;;;3.53;;
30458;SDS011;17254;50.976;7.034;2022-07-03T01:19:53;4.85;;;3.13;;
30458;SDS011;17254;50.976;7.034;2022-07-03T01:20:31;5.47;;;3.38;;
30458;SDS011;17254;50.976;7.034;2022-07-03T01:21:07;5.03;;;2.80;;
30458;SDS011;17254;50.976;7.034;2022-07-03T01:21:41;6.60;;;3.17;;
30458;SDS011;17254;50.976;7.034;2022-07-03T01:22:22;7.53;;;3.70;;
30458;SDS011;17254;50.976;7.034;2022-07-03T01:22:59;7.30;;;3.83;;
30458;SDS011;17254;50.976;7.034;2022-07-03T01:23:34;7.53;;;3.65;;
30458;SDS011;17254;50.976;7.034;2022-07-03T01:24:26;8.57;;;3.58;;
30458;SDS011;17254;50.976;7.034;2022-07-03T01:25:11;8.32;;;3.25;;
30458;SDS011;17254;50.976;7.034;2022-07-03T01:25:49;5.10;;;3.17;;
30458;SDS011;17254;50.976;7.034;2022-07-03T01:26:21;6.68;;;3.40;;
30458;SDS011;17254;50.976;7.034;2022-07-03T01:26:58;8.05;;;3.75;;
30458;SDS011;17254;50.976;7.034;2022-07-03T01:27:35;17.20;;;4.18;;
30458;SDS011;17254;50.976;7.034;2022-07-03T01:28:15;6.63;;;3.65;;
30458;SDS011;17254;50.976;7.034;2022-07-03T01:28:48;7.53;;;3.30;;
30458;SDS011;17254;50.976;7.034;2022-07-03T01:29:22;4.65;;;2.80;;
30458;SDS011;17254;50.976;7.034;2022-07-03T01:30:02;9.73;;;3.80;;
30458;SDS011;17254;50.976;7.034;2022-07-03T01:30:36;8.43;;;3.17;;
30458;SDS011;17254;50.976;7.034;2022-07-03T01:31:10;7.10;;;3.22;;
30458;SDS011;17254;50.976;7.034;2022-07-03T01:31:45;9.50;;;4.22;;
30458;SDS011;17254;50.976;7.034;2022-07-03T01:32:19;10.70;;;4.75;;
30458;SDS011;17254;50.976;7.034;2022-07-03T01:32:59;15.30;;;4.45;;
30458;SDS011;17254;50.976;7.034;2022-07-03T01:33:35;11.52;;;3.88;;
30458;SDS011;17254;50.976;7.034;2022-07-03T01:34:08;14.60;;;4.30;;
30458;SDS011;17254;50.976;7.034;2022-07-03T01:34:43;11.52;;;4.10;;
30458;SDS011;17254;50.976;7.034;2022-07-03T01:35:20;7.63;;;3.38;;
30458;SDS011;17254;50.976;7.034;2022-07-03T01:35:57;10.10;;;4.13;;
30458;SDS011;17254;50.976;7.034;2022-07-03T01:36:34;8.88;;;4.10;;
30458;SDS011;17254;50.976;7.034;2022-07-03T01:37:13;7.18;;;4.15;;
30458;SDS011;17254;50.976;7.034;2022-07-03T01:37:50;11.20;;;4.80;;
30458;SDS011;17254;50.976;7.034;2022-07-03T01:38:22;5.25;;;3.67;;
30458;SDS011;17254;50.976;7.034;2022-07-03T01:38:54;5.43;;;3.58;;
30458;SDS011;17254;50.976;7.034;2022-07-03T01:39:29;9.15;;;4.15;;
30458;SDS011;17254;50.976;7.034;2022-07-03T01:40:02;9.25;;;4.45;;
30458;SDS011;17254;50.976;7.034;2022-07-03T01:40:36;9.73;;;4.50;;
30458;SDS011;17254;50.976;7.034;2022-07-03T01:41:10;8.02;;;4.35;;
30458;SDS011;17254;50.976;7.034;2022-07-03T01:41:44;12.55;;;4.28;;
30458;SDS011;17254;50.976;7.034;2022-07-03T01:42:17;11.77;;;5.00;;
30458;SDS011;17254;50.976;7.034;2022-07-03T01:42:49;10.52;;;4.28;;
30458;SDS011;17254;50.976;7.034;2022-07-03T01:43:25;13.57;;;5.20;;
30458;SDS011;17254;50.976;7.034;2022-07-03T01:44:00;10.05;;;5.20;;
30458;SDS011;17254;50.976;7.034;2022-07-03T01:44:32;5.68;;;3.83;;
30458;SDS011;17254;50.976;7.034;2022-07-03T01:45:04;16.23;;;4.93;;
30458;SDS011;17254;50.976;7.034;2022-07-03T01:45:41;6.35;;;4.35;;
30458;SDS011;17254;50.976;7.034;2022-07-03T01:46:14;6.80;;;3.75;;
30458;SDS011;17254;50.976;7.034;2022-07-03T01:46:48;7.97;;;4.55;;
30458;SDS011;17254;50.976;7.034;2022-07-03T01:47:22;13.80;;;4.47;;
30458;SDS011;17254;50.976;7.034;2022-07-03T01:47:55;10.32;;;4.47;;
30458;SDS011;17254;50.976;7.034;2022-07-03T01:48:29;14.00;;;5.10;;
30458;SDS011;17254;50.976;7.034;2022-07-03T01:49:01;11.10;;;4.63;;
30458;SDS011;17254;50.976;7.034;2022-07-03T01:49:36;10.75;;;4.68;;
30458;SDS011;17254;50.976;7.034;2022-07-03T01:50:10;8.88;;;4.88;;
30458;SDS011;17254;50.976;7.034;2022-07-03T01:50:43;8.50;;;5.60;;
30458;SDS011;17254;50.976;7.034;2022-07-03T01:51:19;10.32;;;5.82;;
30458;SDS011;17254;50.976;7.034;2022-07-03T01:51:53;8.93;;;4.22;;
30458;SDS011;17254;50.976;7.034;2022-07-03T01:52:26;10.52;;;4.55;;
30458;SDS011;17254;50.976;7.034;2022-07-03T01:53:02;8.13;;;4.53;;
30458;SDS011;17254;50.976;7.034;2022-07-03T01:53:36;11.45;;;5.40;;
30458;SDS011;17254;50.976;7.034;2022-07-03T01:54:10;9.30;;;5.13;;
30458;SDS011;17254;50.976;7.034;2022-07-03T01:54:42;11.85;;;4.45;;
30458;SDS011;17254;50.976;7.034;2022-07-03T01:55:16;13.68;;;4.65;;
30458;SDS011;17254;50.976;7.034;2022-07-03T01:55:49;11.05;;;4.40;;
30458;SDS011;17254;50.976;7.034;2022-07-03T01:56:23;7.13;;;4.43;;
30458;SDS011;17254;50.976;7.034;2022-07-03T01:56:56;9.45;;;4.28;;
30458;SDS011;17254;50.976;7.034;2022-07-03T01:57:32;8.45;;;4.40;;
30458;SDS011;17254;50.976;7.034;2022-07-03T01:58:11;8.98;;;4.72;;
30458;SDS011;17254;50.976;7.034;2022-07-03T01:58:44;6.35;;;4.18;;
30458;SDS011;17254;50.976;7.034;2022-07-03T01:59:15;6.13;;;4.22;;
30458;SDS011;17254;50.976;7.034;2022-07-03T01:59:46;10.02;;;4.32;;
30458;SDS011;17254;50.976;7.034;2022-07-03T02:00:18;11.70;;;5.13;;
30458;SDS011;17254;50.976;7.034;2022-07-03T02:00:54;10.10;;;4.97;;
30458;SDS011;17254;50.976;7.034;2022-07-03T02:01:33;8.10;;;4.32;;
30458;SDS011;17254;50.976;7.034;2022-07-03T02:02:14;15.95;;;4.85;;
30458;SDS011;17254;50.976;7.034;2022-07-03T02:02:55;17.73;;;4.55;;
30458;SDS011;17254;50.976;7.034;2022-07-03T02:03:29;11.35;;;4.72;;
30458;SDS011;17254;50.976;7.034;2022-07-03T02:04:03;10.38;;;4.78;;
30458;SDS011;17254;50.976;7.034;2022-07-03T02:04:42;8.15;;;4.53;;
30458;SDS011;17254;50.976;7.034;2022-07-03T02:05:22;8.30;;;4.57;;
30458;SDS011;17254;50.976;7.034;2022-07-03T02:06:08;11.43;;;4.97;;
30458;SDS011;17254;50.976;7.034;2022-07-03T02:06:54;8.05;;;4.30;;
30458;SDS011;17254;50.976;7.034;2022-07-03T02:07:33;9.75;;;5.10;;
30458;SDS011;17254;50.976;7.034;2022-07-03T02:08:12;8.90;;;4.15;;
30458;SDS011;17254;50.976;7.034;2022-07-03T02:08:56;10.40;;;4.72;;
30458;SDS011;17254;50.976;7.034;2022-07-03T02:09:34;6.60;;;4.40;;
30458;SDS011;17254;50.976;7.034;2022-07-03T02:10:13;6.47;;;4.03;;
30458;SDS011;17254;50.976;7.034;2022-07-03T02:10:52;9.65;;;3.80;;
30458;SDS011;17254;50.976;7.034;2022-07-03T02:11:40;8.05;;;4.35;;
30458;SDS011;17254;50.976;7.034;2022-07-03T02:12:14;8.38;;;4.03;;
30458;SDS011;17254;50.976;7.034;2022-07-03T02:12:49;6.88;;;4.22;;
30458;SDS011;17254;50.976;7.034;2022-07-03T02:13:23;7.82;;;4.78;;
30458;SDS011;17254;50.976;7.034;2022-07-03T02:13:59;9.80;;;4.63;;
30458;SDS011;17254;50.976;7.034;2022-07-03T02:14:42;7.22;;;4.20;;
30458;SDS011;17254;50.976;7.034;2022-07-03T02:15:25;6.70;;;4.57;;
30458;SDS011;17254;50.976;7.034;2022-07-03T02:16:00;5.70;;;4.00;;
30458;SDS011;17254;50.976;7.034;2022-07-03T02:16:35;10.15;;;4.32;;
30458;SDS011;17254;50.976;7.034;2022-07-03T02:17:21;7.13;;;4.10;;
30458;SDS011;17254;50.976;7.034;2022-07-03T02:17:52;12.40;;;5.45;;
30458;SDS011;17254;50.976;7.034;2022-07-03T02:18:27;12.98;;;3.95;;
30458;SDS011;17254;50.976;7.034;2022-07-03T02:19:02;7.65;;;3.92;;
30458;SDS011;17254;50.976;7.034;2022-07-03T02:19:37;7.75;;;3.92;;
30458;SDS011;17254;50.976;7.034;2022-07-03T02:20:14;17.25;;;4.40;;
30458;SDS011;17254;50.976;7.034;2022-07-03T02:20:50;7.45;;;3.72;;
30458;SDS011;17254;50.976;7.034;2022-07-03T02:21:38;6.90;;;4.43;;
30458;SDS011;17254;50.976;7.034;2022-07-03T02:22:14;6.22;;;3.58;;
30458;SDS011;17254;50.976;7.034;2022-07-03T02:22:51;5.68;;;3.40;;
30458;SDS011;17254;50.976;7.034;2022-07-03T02:23:26;9.57;;;3.85;;
30458;SDS011;17254;50.976;7.034;2022-07-03T02:24:12;5.40;;;3.15;;
30458;SDS011;17254;50.976;7.034;2022-07-03T02:24:49;9.32;;;3.20;;
30458;SDS011;17254;50.976;7.034;2022-07-03T02:25:21;6.88;;;2.92;;
30458;SDS011;17254;50.976;7.034;2022-07-03T02:25:54;8.20;;;3.70;;
30458;SDS011;17254;50.976;7.034;2022-07-03T02:26:32;6.40;;;3.30;;
30458;SDS011;17254;50.976;7.034;2022-07-03T02:27:05;4.75;;;3.00;;
30458;SDS011;17254;50.976;7.034;2022-07-03T02:27:44;9.55;;;4.25;;
30458;SDS011;17254;50.976;7.034;2022-07-03T02:28:22;5.35;;;3.63;;
30458;SDS011;17254;50.976;7.034;2022-07-03T02:29:02;9.50;;;3.23;;
30458;SDS011;17254;50.976;7.034;2022-07-03T02:29:36;5.93;;;3.22;;
30458;SDS011;17254;50.976;7.034;2022-07-03T02:30:48;7.15;;;3.00;;
30458;SDS011;17254;50.976;7.034;2022-07-03T02:31:22;5.80;;;2.78;;
30458;SDS011;17254;50.976;7.034;2022-07-03T02:31:59;5.97;;;3.00;;
30458;SDS011;17254;50.976;7.034;2022-07-03T02:32:35;6.03;;;3.17;;
30458;SDS011;17254;50.976;7.034;2022-07-03T02:33:09;5.13;;;2.67;;
30458;SDS011;17254;50.976;7.034;2022-07-03T02:33:42;5.50;;;2.90;;
30458;SDS011;17254;50.976;7.034;2022-07-03T02:34:15;6.55;;;3.08;;
30458;SDS011;17254;50.976;7.034;2022-07-03T02:34:49;7.80;;;3.35;;
30458;SDS011;17254;50.976;7.034;2022-07-03T02:35:31;4.43;;;2.58;;
30458;SDS011;17254;50.976;7.034;2022-07-03T02:36:03;8.63;;;2.97;;
30458;SDS011;17254;50.976;7.034;2022-07-03T02:36:40;5.82;;;3.17;;
30458;SDS011;17254;50.976;7.034;2022-07-03T02:37:17;6.43;;;2.88;;
30458;SDS011;17254;50.976;7.034;2022-07-03T02:37:50;6.60;;;2.85;;
30458;SDS011;17254;50.976;7.034;2022-07-03T02:38:29;6.30;;;3.33;;
30458;SDS011;17254;50.976;7.034;2022-07-03T02:39:02;6.22;;;3.15;;
30458;SDS011;17254;50.976;7.034;2022-07-03T02:39:41;5.50;;;2.55;;
30458;SDS011;17254;50.976;7.034;2022-07-03T02:40:17;10.68;;;3.00;;
30458;SDS011;17254;50.976;7.034;2022-07-03T02:40:55;6.53;;;3.35;;
30458;SDS011;17254;50.976;7.034;2022-07-03T02:41:29;9.82;;;3.70;;
30458;SDS011;17254;50.976;7.034;2022-07-03T02:42:12;5.70;;;3.30;;
30458;SDS011;17254;50.976;7.034;2022-07-03T02:42:56;7.95;;;3.30;;
30458;SDS011;17254;50.976;7.034;2022-07-03T02:43:34;14.13;;;3.40;;
30458;SDS011;17254;50.976;7.034;2022-07-03T02:44:11;6.15;;;2.88;;
30458;SDS011;17254;50.976;7.034;2022-07-03T02:44:52;5.43;;;2.72;;
30458;SDS011;17254;50.976;7.034;2022-07-03T02:45:24;4.80;;;2.63;;
30458;SDS011;17254;50.976;7.034;2022-07-03T02:46:01;5.47;;;2.78;;
30458;SDS011;17254;50.976;7.034;2022-07-03T02:47:00;5.22;;;2.10;;
30458;SDS011;17254;50.976;7.034;2022-07-03T02:47:42;5.65;;;3.10;;
30458;SDS011;17254;50.976;7.034;2022-07-03T02:48:19;5.47;;;2.65;;
30458;SDS011;17254;50.976;7.034;2022-07-03T02:48:58;5.40;;;2.92;;
30458;SDS011;17254;50.976;7.034;2022-07-03T02:49:41;4.78;;;3.03;;
30458;SDS011;17254;50.976;7.034;2022-07-03T02:50:15;5.93;;;3.45;;
30458;SDS011;17254;50.976;7.034;2022-07-03T02:50:52;5.57;;;2.65;;
30458;SDS011;17254;50.976;7.034;2022-07-03T02:51:32;5.90;;;2.97;;
30458;SDS011;17254;50.976;7.034;2022-07-03T02:52:10;7.05;;;3.10;;
30458;SDS011;17254;50.976;7.034;2022-07-03T02:52:47;5.93;;;2.75;;
30458;SDS011;17254;50.976;7.034;2022-07-03T02:53:26;6.68;;;2.42;;
30458;SDS011;17254;50.976;7.034;2022-07-03T02:54:04;7.55;;;3.10;;
30458;SDS011;17254;50.976;7.034;2022-07-03T02:54:44;19.00;;;3.38;;
30458;SDS011;17254;50.976;7.034;2022-07-03T02:55:22;6.72;;;2.92;;
30458;SDS011;17254;50.976;7.034;2022-07-03T02:56:14;3.90;;;2.42;;
30458;SDS011;17254;50.976;7.034;2022-07-03T02:56:52;12.25;;;2.88;;
30458;SDS011;17254;50.976;7.034;2022-07-03T02:57:38;9.32;;;3.13;;
30458;SDS011;17254;50.976;7.034;2022-07-03T02:58:17;5.30;;;3.20;;
30458;SDS011;17254;50.976;7.034;2022-07-03T02:59:03;7.30;;;2.60;;
30458;SDS011;17254;50.976;7.034;2022-07-03T02:59:51;5.80;;;2.63;;
30458;SDS011;17254;50.976;7.034;2022-07-03T03:00:24;8.50;;;2.85;;
30458;SDS011;17254;50.976;7.034;2022-07-03T03:00:57;5.97;;;3.08;;
30458;SDS011;17254;50.976;7.034;2022-07-03T03:01:30;4.90;;;2.38;;
30458;SDS011;17254;50.976;7.034;2022-07-03T03:02:12;7.63;;;3.05;;
30458;SDS011;17254;50.976;7.034;2022-07-03T03:02:52;10.18;;;3.10;;
30458;SDS011;17254;50.976;7.034;2022-07-03T03:03:26;11.35;;;2.92;;
30458;SDS011;17254;50.976;7.034;2022-07-03T03:04:01;5.55;;;3.30;;
30458;SDS011;17254;50.976;7.034;2022-07-03T03:04:40;7.18;;;3.10;;
30458;SDS011;17254;50.976;7.034;2022-07-03T03:05:15;9.27;;;3.20;;
30458;SDS011;17254;50.976;7.034;2022-07-03T03:05:51;7.30;;;3.38;;
30458;SDS011;17254;50.976;7.034;2022-07-03T03:06:25;15.50;;;3.60;;
30458;SDS011;17254;50.976;7.034;2022-07-03T03:06:59;4.55;;;2.63;;
30458;SDS011;17254;50.976;7.034;2022-07-03T03:07:33;6.22;;;2.78;;
30458;SDS011;17254;50.976;7.034;2022-07-03T03:08:16;7.45;;;3.20;;
30458;SDS011;17254;50.976;7.034;2022-07-03T03:08:55;8.00;;;2.55;;
30458;SDS011;17254;50.976;7.034;2022-07-03T03:09:34;4.90;;;3.15;;
30458;SDS011;17254;50.976;7.034;2022-07-03T03:10:12;8.77;;;2.53;;
30458;SDS011;17254;50.976;7.034;2022-07-03T03:10:44;9.85;;;2.80;;
30458;SDS011;17254;50.976;7.034;2022-07-03T03:11:20;11.07;;;3.20;;
30458;SDS011;17254;50.976;7.034;2022-07-03T03:11:56;5.15;;;2.95;;
30458;SDS011;17254;50.976;7.034;2022-07-03T03:12:35;6.40;;;3.28;;
30458;SDS011;17254;50.976;7.034;2022-07-03T03:13:11;7.75;;;3.20;;
30458;SDS011;17254;50.976;7.034;2022-07-03T03:13:45;5.40;;;2.72;;
30458;SDS011;17254;50.976;7.034;2022-07-03T03:14:20;5.22;;;2.88;;
30458;SDS011;17254;50.976;7.034;2022-07-03T03:15:00;6.57;;;3.08;;
30458;SDS011;17254;50.976;7.034;2022-07-03T03:15:34;6.13;;;2.85;;
30458;SDS011;17254;50.976;7.034;2022-07-03T03:16:07;7.15;;;2.67;;
30458;SDS011;17254;50.976;7.034;2022-07-03T03:16:41;10.63;;;4.30;;
30458;SDS011;17254;50.976;7.034;2022-07-03T03:17:23;6.05;;;2.90;;
30458;SDS011;17254;50.976;7.034;2022-07-03T03:17:56;5.38;;;3.25;;
30458;SDS011;17254;50.976;7.034;2022-07-03T03:18:33;5.63;;;2.90;;
30458;SDS011;17254;50.976;7.034;2022-07-03T03:19:07;4.38;;;2.67;;
30458;SDS011;17254;50.976;7.034;2022-07-03T03:19:40;5.90;;;2.72;;
30458;SDS011;17254;50.976;7.034;2022-07-03T03:20:15;5.95;;;2.70;;
30458;SDS011;17254;50.976;7.034;2022-07-03T03:20:48;9.15;;;3.47;;
30458;SDS011;17254;50.976;7.034;2022-07-03T03:21:23;6.68;;;3.42;;
30458;SDS011;17254;50.976;7.034;2022-07-03T03:22:03;4.20;;;3.40;;
30458;SDS011;17254;50.976;7.034;2022-07-03T03:22:45;15.40;;;2.67;;
30458;SDS011;17254;50.976;7.034;2022-07-03T03:23:30;5.60;;;3.33;;
30458;SDS011;17254;50.976;7.034;2022-07-03T03:24:09;4.30;;;3.30;;
30458;SDS011;17254;50.976;7.034;2022-07-03T03:24:40;6.20;;;3.05;;
30458;SDS011;17254;50.976;7.034;2022-07-03T03:25:11;5.75;;;2.80;;
30458;SDS011;17254;50.976;7.034;2022-07-03T03:25:43;6.63;;;2.53;;
30458;SDS011;17254;50.976;7.034;2022-07-03T03:26:15;9.52;;;2.83;;
30458;SDS011;17254;50.976;7.034;2022-07-03T03:26:48;10.75;;;2.90;;
30458;SDS011;17254;50.976;7.034;2022-07-03T03:27:20;3.65;;;2.88;;
30458;SDS011;17254;50.976;7.034;2022-07-03T03:27:53;7.50;;;3.03;;
30458;SDS011;17254;50.976;7.034;2022-07-03T03:28:25;6.35;;;2.97;;
30458;SDS011;17254;50.976;7.034;2022-07-03T03:28:58;8.35;;;2.92;;
30458;SDS011;17254;50.976;7.034;2022-07-03T03:29:29;7.70;;;3.00;;
30458;SDS011;17254;50.976;7.034;2022-07-03T03:30:02;5.43;;;3.10;;
30458;SDS011;17254;50.976;7.034;2022-07-03T03:30:36;3.50;;;2.47;;
30458;SDS011;17254;50.976;7.034;2022-07-03T03:31:07;6.65;;;3.67;;
30458;SDS011;17254;50.976;7.034;2022-07-03T03:31:40;6.70;;;2.45;;
30458;SDS011;17254;50.976;7.034;2022-07-03T03:32:11;7.45;;;3.33;;
30458;SDS011;17254;50.976;7.034;2022-07-03T03:32:43;4.53;;;2.63;;
30458;SDS011;17254;50.976;7.034;2022-07-03T03:33:16;10.23;;;3.53;;
30458;SDS011;17254;50.976;7.034;2022-07-03T03:33:48;4.13;;;2.67;;
30458;SDS011;17254;50.976;7.034;2022-07-03T03:34:21;11.55;;;3.28;;
30458;SDS011;17254;50.976;7.034;2022-07-03T03:34:54;5.10;;;3.47;;
30458;SDS011;17254;50.976;7.034;2022-07-03T03:35:25;4.90;;;3.50;;